createdAt,value
2019-05-20T00:00:15.281Z,99560.14
2019-05-20T00:02:48.677Z,99561.42
2019-05-20T00:05:21.359Z,99564.47
2019-05-20T00:07:53.933Z,99558.75
2019-05-20T00:10:26.613Z,99564.00
2019-05-20T00:12:59.297Z,99561.80
2019-05-20T00:15:32.177Z,99572.35
2019-05-20T00:18:04.807Z,99581.59
2019-05-20T00:20:37.432Z,99579.42
2019-05-20T00:23:10.020Z,99571.20
2019-05-20T00:25:42.694Z,99576.03
2019-05-20T00:28:15.267Z,99569.06
2019-05-20T00:30:47.765Z,99564.23
2019-05-20T00:33:19.987Z,99564.66
2019-05-20T00:35:52.690Z,99553.67
2019-05-20T00:38:25.339Z,99552.80
2019-05-20T00:40:58.055Z,99548.84
2019-05-20T00:43:30.516Z,99545.72
2019-05-20T00:46:03.815Z,99548.33
2019-05-20T00:48:36.491Z,99543.97
2019-05-20T00:51:09.223Z,99543.94
2019-05-20T00:53:41.856Z,99538.18
2019-05-20T00:56:15.862Z,99537.71
2019-05-20T00:58:48.542Z,99534.22
2019-05-20T01:01:21.220Z,99539.06
2019-05-20T01:03:53.901Z,99545.66
2019-05-20T01:06:26.590Z,99544.30
2019-05-20T01:08:59.255Z,99544.27
2019-05-20T01:11:31.549Z,99540.78
2019-05-20T01:14:04.834Z,99538.18
2019-05-20T01:16:37.706Z,99540.38
2019-05-20T01:19:10.396Z,99543.90
2019-05-20T01:21:43.165Z,99539.13
2019-05-20T01:24:15.745Z,99540.05
2019-05-20T01:26:48.422Z,99538.76
2019-05-20T01:29:22.540Z,99538.76
2019-05-20T01:31:55.211Z,99531.31
2019-05-20T01:34:28.202Z,99525.16
2019-05-20T01:37:00.892Z,99519.91
2019-05-20T01:39:33.566Z,99520.36
2019-05-20T01:42:06.243Z,99518.63
2019-05-20T01:44:38.472Z,99520.89
2019-05-20T01:47:11.195Z,99519.13
2019-05-20T01:49:44.897Z,99506.86
2019-05-20T01:52:17.690Z,99515.72
2019-05-20T01:54:50.357Z,99513.05
2019-05-20T01:57:23.035Z,99512.63
2019-05-20T01:59:55.717Z,99510.50
2019-05-20T02:02:28.399Z,99507.05
2019-05-20T02:05:01.425Z,99507.92
2019-05-20T02:07:34.374Z,99512.38
2019-05-20T02:10:10.118Z,99518.16
2019-05-20T02:12:42.797Z,99516.04
2019-05-20T02:15:21.302Z,99500.23
2019-05-20T02:17:54.714Z,99501.19
2019-05-20T02:20:26.952Z,99502.12
2019-05-20T02:23:17.989Z,99496.88
2019-05-20T02:25:51.480Z,99489.44
2019-05-20T02:28:25.285Z,99489.03
2019-05-20T02:30:57.993Z,99485.52
2019-05-20T02:33:47.868Z,99484.63
2019-05-20T02:36:05.070Z,99484.17
2019-05-20T02:38:37.752Z,99491.63
2019-05-20T02:41:10.429Z,99487.68
2019-05-20T02:43:43.109Z,99487.69
2019-05-20T02:46:15.689Z,99486.80
2019-05-20T02:48:48.354Z,99479.78
2019-05-20T02:51:22.581Z,99483.27
2019-05-20T02:53:55.265Z,99480.19
2019-05-20T02:56:27.934Z,99475.77
2019-05-20T02:59:00.609Z,99473.13
2019-05-20T03:01:33.185Z,99470.06
2019-05-20T03:04:12.253Z,99472.25
2019-05-20T03:06:40.169Z,99476.21
2019-05-20T03:09:12.918Z,99480.16
2019-05-20T03:11:45.112Z,99475.77
2019-05-20T03:18:02.686Z,99479.28
2019-05-20T03:20:35.389Z,99481.02
2019-05-20T03:23:08.061Z,99477.94
2019-05-20T03:25:40.772Z,99481.45
2019-05-20T03:28:13.442Z,99481.83
2019-05-20T03:30:46.109Z,99476.13
2019-05-20T03:33:18.785Z,99479.14
2019-05-20T03:35:51.574Z,99472.96
2019-05-20T03:38:24.246Z,99479.08
2019-05-20T03:40:56.925Z,99468.50
2019-05-20T03:43:29.604Z,99465.40
2019-05-20T03:46:02.284Z,99465.36
2019-05-20T03:48:36.497Z,99460.47
2019-05-20T03:51:09.180Z,99453.40
2019-05-20T03:53:41.859Z,99449.82
2019-05-20T03:56:14.960Z,99440.12
2019-05-20T03:58:47.521Z,99443.59
2019-05-20T04:01:20.203Z,99437.37
2019-05-20T04:03:52.875Z,99445.21
2019-05-20T04:06:25.501Z,99445.98
2019-05-20T04:08:58.137Z,99442.83
2019-05-20T04:11:30.809Z,99443.67
2019-05-20T04:14:03.394Z,99434.39
2019-05-20T04:16:36.099Z,99432.13
2019-05-20T04:19:08.750Z,99437.77
2019-05-20T04:21:41.420Z,99435.92
2019-05-20T04:24:18.478Z,99429.23
2019-05-20T04:27:02.848Z,99421.59
2019-05-20T04:29:38.466Z,99420.58
2019-05-20T04:32:17.654Z,99429.23
2019-05-20T04:34:51.037Z,99430.86
2019-05-20T04:37:27.512Z,99429.02
2019-05-20T04:40:00.189Z,99427.55
2019-05-20T04:42:32.754Z,99427.94
2019-05-20T04:45:06.982Z,99429.08
2019-05-20T04:47:39.460Z,99429.31
2019-05-20T04:50:12.441Z,99433.52
2019-05-20T04:52:45.118Z,99433.59
2019-05-20T04:55:17.841Z,99429.72
2019-05-20T04:57:50.468Z,99428.68
2019-05-20T05:00:50.241Z,99424.75
2019-05-20T05:03:23.716Z,99424.45
2019-05-20T05:05:56.493Z,99425.02
2019-05-20T05:08:29.158Z,99420.16
2019-05-20T05:11:02.033Z,99426.45
2019-05-20T05:13:34.256Z,99430.50
2019-05-20T05:16:06.986Z,99423.28
2019-05-20T05:18:41.196Z,99426.53
2019-05-20T05:21:13.872Z,99427.24
2019-05-20T05:23:58.254Z,99433.97
2019-05-20T05:26:20.865Z,99430.28
2019-05-20T05:28:53.551Z,99432.80
2019-05-20T05:31:26.231Z,99429.30
2019-05-20T05:33:58.908Z,99434.73
2019-05-20T05:36:31.582Z,99428.70
2019-05-20T05:39:05.695Z,99431.59
2019-05-20T05:41:38.376Z,99421.90
2019-05-20T05:44:11.060Z,99419.70
2019-05-20T05:46:43.737Z,99408.52
2019-05-20T05:49:16.406Z,99401.55
2019-05-20T05:51:49.087Z,99394.62
2019-05-20T05:54:21.673Z,99397.61
2019-05-20T05:56:54.342Z,99396.21
2019-05-20T05:59:26.927Z,99397.50
2019-05-20T06:01:59.601Z,99399.69
2019-05-20T06:04:32.278Z,99389.35
2019-05-20T06:07:04.959Z,99386.25
2019-05-20T06:09:37.952Z,99392.11
2019-05-20T06:12:10.627Z,99388.47
2019-05-20T06:14:43.259Z,99386.78
2019-05-20T06:17:15.888Z,99382.06
2019-05-20T06:19:48.569Z,99365.81
2019-05-20T06:22:21.246Z,99374.00
2019-05-20T06:24:53.918Z,99372.34
2019-05-20T06:27:26.600Z,99378.47
2019-05-20T06:29:59.185Z,99379.89
2019-05-20T06:32:32.061Z,99376.98
2019-05-20T06:35:09.045Z,99375.03
2019-05-20T06:37:47.919Z,99372.88
2019-05-20T06:40:20.546Z,99355.84
2019-05-20T06:42:53.936Z,99354.27
2019-05-20T06:45:26.616Z,99350.94
2019-05-20T06:47:59.298Z,99345.33
2019-05-20T06:50:32.075Z,99343.55
2019-05-20T06:53:06.497Z,99347.91
2019-05-20T06:55:39.438Z,99341.77
2019-05-20T06:58:12.469Z,99347.38
2019-05-20T07:00:45.362Z,99337.46
2019-05-20T07:03:18.034Z,99335.17
2019-05-20T07:05:50.715Z,99338.44
2019-05-20T07:08:23.411Z,99339.55
2019-05-20T07:10:56.182Z,99338.72
2019-05-20T07:13:29.165Z,99336.58
2019-05-20T07:16:01.898Z,99334.36
2019-05-20T07:18:34.627Z,99333.00
2019-05-20T07:21:07.199Z,99336.62
2019-05-20T07:23:39.882Z,99327.32
2019-05-20T07:26:12.554Z,99338.35
2019-05-20T07:28:45.200Z,99328.96
2019-05-20T07:31:17.869Z,99333.13
2019-05-20T07:33:50.490Z,99323.52
2019-05-20T07:36:23.112Z,99329.83
2019-05-20T07:38:56.786Z,99324.85
2019-05-20T07:41:29.354Z,99321.88
2019-05-20T07:44:02.148Z,99326.07
2019-05-20T07:46:36.445Z,99325.84
2019-05-20T07:49:10.197Z,99319.50
2019-05-20T07:51:43.970Z,99323.89
2019-05-20T07:54:17.253Z,99321.11
2019-05-20T07:56:52.950Z,99316.70
2019-05-20T07:59:27.939Z,99319.84
2019-05-20T08:02:00.731Z,99317.77
2019-05-20T08:04:34.053Z,99317.81
2019-05-20T08:07:26.116Z,99316.47
2019-05-20T08:09:45.678Z,99313.72
2019-05-20T08:12:15.016Z,99311.64
2019-05-20T08:14:47.702Z,99310.84
2019-05-20T08:17:20.423Z,99320.28
2019-05-20T08:19:53.061Z,99322.16
2019-05-20T08:22:25.732Z,99313.90
2019-05-20T08:24:58.465Z,99318.38
2019-05-20T08:27:31.094Z,99317.19
2019-05-20T08:30:04.185Z,99319.16
2019-05-20T08:32:37.374Z,99319.03
2019-05-20T08:35:11.282Z,99307.91
2019-05-20T08:37:45.791Z,99302.61
2019-05-20T08:40:17.601Z,99293.86
2019-05-20T08:42:50.246Z,99299.56
2019-05-20T08:45:22.925Z,99297.02
2019-05-20T08:47:55.555Z,99306.82
2019-05-20T08:50:28.279Z,99312.11
2019-05-20T08:53:00.959Z,99302.65
2019-05-20T08:55:33.858Z,99304.96
2019-05-20T08:58:06.383Z,99302.69
2019-05-20T09:00:39.611Z,99307.37
2019-05-20T09:03:12.345Z,99304.80
2019-05-20T09:05:45.063Z,99305.95
2019-05-20T09:08:18.979Z,99308.88
2019-05-20T09:10:51.651Z,99315.30
2019-05-20T09:13:24.333Z,99313.49
2019-05-20T09:15:57.021Z,99312.56
2019-05-20T09:18:29.738Z,99306.03
2019-05-20T09:21:02.659Z,99296.78
2019-05-20T09:23:37.651Z,99295.52
2019-05-20T09:26:10.341Z,99305.05
2019-05-20T09:28:44.347Z,99303.25
2019-05-20T09:31:17.192Z,99284.20
2019-05-20T09:33:52.230Z,99288.12
2019-05-20T09:36:26.031Z,99295.59
2019-05-20T09:38:59.819Z,99299.95
2019-05-20T09:41:35.372Z,99294.23
2019-05-20T09:44:09.795Z,99300.53
2019-05-20T09:46:43.854Z,99303.85
2019-05-20T09:49:16.647Z,99298.68
2019-05-20T09:51:49.626Z,99287.32
2019-05-20T09:54:22.329Z,99285.95
2019-05-20T09:56:54.681Z,99279.28
2019-05-20T09:59:41.982Z,99297.83
2019-05-20T10:02:01.862Z,99304.26
2019-05-20T10:04:34.502Z,99303.84
2019-05-20T10:07:07.319Z,99299.63
2019-05-20T10:09:40.081Z,99289.17
2019-05-20T10:12:12.815Z,99285.47
2019-05-20T10:14:47.628Z,99297.34
2019-05-20T10:17:20.366Z,99291.89
2019-05-20T10:19:53.299Z,99293.06
2019-05-20T10:22:26.032Z,99293.98
2019-05-20T10:24:58.713Z,99296.66
2019-05-20T10:27:34.624Z,99297.22
2019-05-20T10:30:11.193Z,99289.90
2019-05-20T10:32:43.929Z,99293.91
2019-05-20T10:35:17.097Z,99291.80
2019-05-20T10:37:49.775Z,99290.02
2019-05-20T10:40:22.468Z,99292.79
2019-05-20T10:42:55.148Z,99298.45
2019-05-20T10:45:27.868Z,99298.78
2019-05-20T10:48:00.606Z,99286.69
2019-05-20T10:50:34.308Z,99281.25
2019-05-20T10:53:07.031Z,99275.87
2019-05-20T10:55:39.262Z,99266.06
2019-05-20T10:58:11.939Z,99250.23
2019-05-20T11:01:00.968Z,99252.70
2019-05-20T11:03:18.668Z,99248.87
2019-05-20T11:05:51.646Z,99276.03
2019-05-20T11:08:24.290Z,99283.90
2019-05-20T11:10:57.628Z,99284.66
2019-05-20T11:13:30.464Z,99299.18
2019-05-20T11:16:03.146Z,99293.05
2019-05-20T11:18:35.826Z,99295.80
2019-05-20T11:21:08.507Z,99293.10
2019-05-20T11:23:40.898Z,99298.17
2019-05-20T11:26:13.801Z,99304.34
2019-05-20T11:28:47.976Z,99304.37
2019-05-20T11:31:20.217Z,99293.95
2019-05-20T11:33:52.620Z,99292.37
2019-05-20T11:36:25.305Z,99301.69
2019-05-20T11:38:57.595Z,99297.47
2019-05-20T11:41:52.089Z,99299.64
2019-05-20T11:44:04.820Z,99290.44
2019-05-20T11:46:37.447Z,99294.42
2019-05-20T11:49:10.140Z,99293.58
2019-05-20T11:51:42.703Z,99291.94
2019-05-20T11:54:15.843Z,99274.08
2019-05-20T11:56:48.472Z,99268.13
2019-05-20T11:59:21.154Z,99276.59
2019-05-20T12:01:53.830Z,99274.86
2019-05-20T12:04:27.739Z,99272.52
2019-05-20T12:07:00.377Z,99272.56
2019-05-20T12:09:48.105Z,99277.50
2019-05-20T12:12:07.287Z,99263.67
2019-05-20T12:14:39.985Z,99258.03
2019-05-20T12:17:12.764Z,99254.78
2019-05-20T12:19:45.460Z,99258.17
2019-05-20T12:22:18.073Z,99271.14
2019-05-20T12:24:51.812Z,99266.02
2019-05-20T12:27:24.628Z,99259.20
2019-05-20T12:29:57.305Z,99258.30
2019-05-20T12:32:29.987Z,99261.52
2019-05-20T12:35:02.810Z,99263.72
2019-05-20T12:37:35.800Z,99257.38
2019-05-20T12:40:09.983Z,99247.61
2019-05-20T12:42:42.642Z,99245.20
2019-05-20T12:45:15.536Z,99245.52
2019-05-20T12:47:48.099Z,99244.63
2019-05-20T12:50:20.872Z,99249.22
2019-05-20T12:52:53.557Z,99245.28
2019-05-20T12:55:26.228Z,99254.33
2019-05-20T12:57:58.915Z,99255.45
2019-05-20T13:00:32.108Z,99242.95
2019-05-20T13:03:04.683Z,99244.27
2019-05-20T13:05:37.375Z,99236.00
2019-05-20T13:08:09.668Z,99232.97
2019-05-20T13:10:42.418Z,99233.78
2019-05-20T13:13:15.087Z,99228.88
2019-05-20T13:15:47.768Z,99222.91
2019-05-20T13:18:20.668Z,99217.73
2019-05-20T13:20:53.334Z,99208.39
2019-05-20T13:23:26.015Z,99216.30
2019-05-20T13:25:58.693Z,99216.31
2019-05-20T13:28:31.272Z,99220.64
2019-05-20T13:31:03.569Z,99214.02
2019-05-20T13:33:36.024Z,99211.44
2019-05-20T13:36:08.684Z,99215.22
2019-05-20T13:38:41.414Z,99215.22
2019-05-20T13:41:13.680Z,99209.03
2019-05-20T13:43:46.931Z,99223.14
2019-05-20T13:46:19.913Z,99214.01
2019-05-20T13:48:52.520Z,99211.89
2019-05-20T13:51:25.177Z,99227.33
2019-05-20T13:53:57.863Z,99238.64
2019-05-20T13:56:30.540Z,99233.53
2019-05-20T13:59:02.808Z,99233.40
2019-05-20T14:01:35.480Z,99229.27
2019-05-20T14:04:08.164Z,99232.16
2019-05-20T14:06:40.900Z,99232.00
2019-05-20T14:09:13.514Z,99229.25
2019-05-20T14:11:46.206Z,99220.06
2019-05-20T14:14:18.984Z,99217.05
2019-05-20T14:16:52.690Z,99221.36
2019-05-20T14:19:25.478Z,99217.43
2019-05-20T14:21:58.169Z,99232.70
2019-05-20T14:24:30.830Z,99221.79
2019-05-20T14:27:03.922Z,99223.20
2019-05-20T14:29:36.897Z,99213.89
2019-05-20T14:32:09.578Z,99220.39
2019-05-20T14:34:42.821Z,99230.34
2019-05-20T14:37:15.587Z,99242.04
2019-05-20T14:39:48.309Z,99239.84
2019-05-20T14:42:21.110Z,99249.48
2019-05-20T14:44:54.001Z,99249.48
2019-05-20T14:47:26.735Z,99272.98
2019-05-20T14:49:59.354Z,99272.98
2019-05-20T14:52:31.986Z,99276.28
2019-05-20T14:55:06.161Z,99291.66
2019-05-20T14:57:39.235Z,99301.17
2019-05-20T15:00:13.343Z,99299.30
2019-05-20T15:02:46.342Z,99319.68
2019-05-20T15:05:18.910Z,99306.68
2019-05-20T15:07:51.594Z,99312.09
2019-05-20T15:10:24.400Z,99307.73
2019-05-20T15:12:57.047Z,99311.06
2019-05-20T15:15:30.849Z,99312.87
2019-05-20T15:18:03.227Z,99308.25
2019-05-20T15:20:35.802Z,99306.81
2019-05-20T15:23:09.206Z,99313.52
2019-05-20T15:25:41.887Z,99313.52
2019-05-20T15:28:15.782Z,99319.80
2019-05-20T15:30:48.420Z,99313.19
2019-05-20T15:33:21.483Z,99308.52
2019-05-20T15:35:54.139Z,99313.19
2019-05-20T15:38:27.621Z,99320.51
2019-05-20T15:41:00.208Z,99316.70
2019-05-20T15:43:32.894Z,99296.66
2019-05-20T15:46:05.827Z,99315.27
2019-05-20T15:48:38.683Z,99315.27
2019-05-20T15:51:11.372Z,99313.53
2019-05-20T15:53:44.076Z,99307.34
2019-05-20T15:56:16.700Z,99308.96
2019-05-20T15:58:49.368Z,99308.97
2019-05-20T16:01:22.168Z,99295.91
2019-05-20T16:03:55.249Z,99295.94
2019-05-20T16:06:27.873Z,99298.72
2019-05-20T16:09:01.845Z,99305.58
2019-05-20T16:11:37.598Z,99313.92
2019-05-20T16:14:10.578Z,99326.61
2019-05-20T16:16:43.458Z,99313.31
2019-05-20T16:19:16.282Z,99321.84
2019-05-20T16:21:50.059Z,99323.95
2019-05-20T16:24:23.144Z,99324.70
2019-05-20T16:26:56.753Z,99321.19
2019-05-20T16:29:29.590Z,99334.02
2019-05-20T16:32:01.801Z,99339.57
2019-05-20T16:34:35.353Z,99329.66
2019-05-20T16:37:08.054Z,99337.72
2019-05-20T16:39:41.139Z,99346.09
2019-05-20T16:42:13.725Z,99357.39
2019-05-20T16:44:46.002Z,99364.42
2019-05-20T16:47:18.437Z,99356.23
2019-05-20T16:49:51.155Z,99367.87
2019-05-20T16:52:23.726Z,99347.98
2019-05-20T16:54:56.411Z,99349.12
2019-05-20T16:57:29.139Z,99349.12
2019-05-20T17:00:01.871Z,99348.82
2019-05-20T17:02:35.364Z,99349.36
2019-05-20T17:05:11.225Z,99343.41
2019-05-20T17:07:43.584Z,99347.75
2019-05-20T17:10:16.683Z,99334.53
2019-05-20T17:12:50.030Z,99332.97
2019-05-20T17:15:22.649Z,99343.69
2019-05-20T17:17:55.234Z,99354.52
2019-05-20T17:20:27.526Z,99347.34
2019-05-20T17:23:00.488Z,99350.25
2019-05-20T17:25:34.403Z,99346.79
2019-05-20T17:28:07.012Z,99341.13
2019-05-20T17:30:45.625Z,99350.44
2019-05-20T17:33:13.980Z,99351.23
2019-05-20T17:35:46.642Z,99352.38
2019-05-20T17:38:18.861Z,99347.66
2019-05-20T17:40:54.478Z,99341.29
2019-05-20T17:43:27.402Z,99343.88
2019-05-20T17:46:01.152Z,99342.60
2019-05-20T17:48:33.722Z,99352.71
2019-05-20T17:51:06.459Z,99354.09
2019-05-20T17:53:38.795Z,99356.86
2019-05-20T17:56:11.107Z,99360.34
2019-05-20T17:58:43.783Z,99365.76
2019-05-20T18:01:16.337Z,99362.13
2019-05-20T18:03:48.674Z,99370.98
2019-05-20T18:06:20.953Z,99382.95
2019-05-20T18:08:55.157Z,99379.50
2019-05-20T18:11:27.900Z,99382.01
2019-05-20T18:14:00.414Z,99374.51
2019-05-20T18:16:33.096Z,99380.50
2019-05-20T18:19:06.029Z,99372.38
2019-05-20T18:21:39.225Z,99375.94
2019-05-20T18:24:11.894Z,99385.84
2019-05-20T18:26:44.528Z,99383.62
2019-05-20T18:29:17.102Z,99392.58
2019-05-20T18:31:49.379Z,99384.94
2019-05-20T18:34:21.954Z,99385.86
2019-05-20T18:36:54.241Z,99397.23
2019-05-20T18:39:26.960Z,99397.83
2019-05-20T18:41:59.355Z,99408.92
2019-05-20T18:44:32.010Z,99397.80
2019-05-20T18:47:04.832Z,99394.62
2019-05-20T18:49:40.765Z,99395.88
2019-05-20T18:52:11.733Z,99405.02
2019-05-20T18:54:44.041Z,99404.81
2019-05-20T18:57:16.711Z,99412.19
2019-05-20T18:59:49.382Z,99412.00
2019-05-20T19:02:22.862Z,99406.31
2019-05-20T19:04:56.045Z,99410.05
2019-05-20T19:07:29.138Z,99408.88
2019-05-20T19:10:01.877Z,99406.78
2019-05-20T19:12:34.649Z,99402.08
2019-05-20T19:15:08.813Z,99411.58
2019-05-20T19:17:41.331Z,99418.02
2019-05-20T19:20:13.651Z,99430.17
2019-05-20T19:22:46.953Z,99423.53
2019-05-20T19:25:19.537Z,99427.10
2019-05-20T19:27:52.204Z,99430.23
2019-05-20T19:30:24.887Z,99421.72
2019-05-20T19:32:57.176Z,99430.28
2019-05-20T19:35:29.834Z,99425.41
2019-05-20T19:38:02.613Z,99424.33
2019-05-20T19:40:35.212Z,99419.89
2019-05-20T19:43:07.880Z,99422.47
2019-05-20T19:45:40.562Z,99430.16
2019-05-20T19:48:13.461Z,99427.84
2019-05-20T19:50:49.644Z,99425.69
2019-05-20T19:53:23.201Z,99425.62
2019-05-20T19:55:56.749Z,99415.75
2019-05-20T19:58:30.684Z,99419.61
2019-05-20T20:01:03.605Z,99425.43
2019-05-20T20:03:37.005Z,99425.10
2019-05-20T20:06:11.933Z,99422.56
2019-05-20T20:08:46.758Z,99420.97
2019-05-20T20:11:29.295Z,99433.59
2019-05-20T20:14:06.888Z,99431.88
2019-05-20T20:16:41.658Z,99429.94
2019-05-20T20:19:15.849Z,99431.39
2019-05-20T20:21:53.062Z,99432.83
2019-05-20T20:24:27.782Z,99432.11
2019-05-20T20:27:02.247Z,99430.52
2019-05-20T20:29:39.547Z,99424.03
2019-05-20T20:32:15.623Z,99424.64
2019-05-20T20:34:52.175Z,99424.26
2019-05-20T20:37:26.657Z,99418.70
2019-05-20T20:40:01.006Z,99421.02
2019-05-20T20:42:35.137Z,99421.56
2019-05-20T20:45:08.748Z,99418.88
2019-05-20T20:47:42.301Z,99422.89
2019-05-20T20:50:15.820Z,99429.06
2019-05-20T20:52:48.383Z,99423.43
2019-05-20T20:55:21.042Z,99419.85
2019-05-20T20:57:53.669Z,99419.31
2019-05-20T21:00:26.364Z,99420.58
2019-05-20T21:02:58.985Z,99430.27
2019-05-20T21:05:32.352Z,99422.94
2019-05-20T21:08:05.091Z,99419.04
2019-05-20T21:10:38.261Z,99423.96
2019-05-20T21:13:12.230Z,99417.89
2019-05-20T21:15:45.150Z,99416.77
2019-05-20T21:18:18.793Z,99414.14
2019-05-20T21:20:51.493Z,99410.33
2019-05-20T21:23:24.168Z,99410.52
2019-05-20T21:25:56.797Z,99410.63
2019-05-20T21:28:30.541Z,99412.88
2019-05-20T21:31:03.222Z,99414.73
2019-05-20T21:33:36.995Z,99420.95
2019-05-20T21:36:09.664Z,99413.51
2019-05-20T21:38:42.281Z,99421.44
2019-05-20T21:41:14.912Z,99417.13
2019-05-20T21:43:47.492Z,99415.89
2019-05-20T21:46:21.188Z,99416.30
2019-05-20T21:48:53.764Z,99414.63
2019-05-20T21:51:26.457Z,99413.44
2019-05-20T21:53:59.143Z,99410.48
2019-05-20T21:56:31.809Z,99408.83
2019-05-20T21:59:04.796Z,99413.35
2019-05-20T22:01:37.475Z,99412.99
2019-05-20T22:04:10.106Z,99412.16
2019-05-20T22:06:42.834Z,99409.53
2019-05-20T22:09:15.715Z,99417.53
2019-05-20T22:11:48.702Z,99417.97
2019-05-20T22:14:21.338Z,99409.21
2019-05-20T22:16:55.201Z,99408.85
2019-05-20T22:19:27.752Z,99407.69
2019-05-20T22:22:18.312Z,99402.97
2019-05-20T22:24:50.997Z,99400.81
2019-05-20T22:27:23.782Z,99404.44
2019-05-20T22:29:56.401Z,99411.58
2019-05-20T22:32:30.306Z,99401.14
2019-05-20T22:35:02.886Z,99398.14
2019-05-20T22:37:36.607Z,99406.89
2019-05-20T22:40:08.819Z,99406.85
2019-05-20T22:42:42.866Z,99409.38
2019-05-20T22:45:15.756Z,99404.98
2019-05-20T22:47:48.530Z,99408.84
2019-05-20T22:50:21.416Z,99411.36
2019-05-20T22:52:54.206Z,99415.28
2019-05-20T22:55:26.775Z,99419.60
2019-05-20T22:57:59.462Z,99425.75
2019-05-20T23:00:32.251Z,99420.89
2019-05-20T23:03:05.216Z,99424.40
2019-05-20T23:05:38.178Z,99432.02
2019-05-20T23:08:10.886Z,99429.38
2019-05-20T23:10:43.779Z,99431.51
2019-05-20T23:13:16.551Z,99428.36
2019-05-20T23:15:49.449Z,99435.10
2019-05-20T23:18:23.772Z,99423.45
2019-05-20T23:20:56.701Z,99420.88
2019-05-20T23:23:29.332Z,99431.43
2019-05-20T23:26:02.097Z,99432.34
2019-05-20T23:28:34.786Z,99432.84
2019-05-20T23:31:08.070Z,99430.78
2019-05-20T23:33:40.652Z,99435.20
2019-05-20T23:36:13.690Z,99439.28
2019-05-20T23:38:46.519Z,99438.44
2019-05-20T23:41:19.145Z,99438.50
2019-05-20T23:43:51.885Z,99442.03
2019-05-20T23:46:24.557Z,99434.16
2019-05-20T23:48:57.238Z,99432.11
2019-05-20T23:51:30.040Z,99429.53
2019-05-20T23:54:02.761Z,99435.23
2019-05-20T23:56:35.370Z,99436.54
2019-05-20T23:59:08.112Z,99439.20
